sensor_id;sensor_type;location;lat;lon;timestamp;P1;durP1;ratioP1;P2;durP2;ratioP2
9834;SDS011;69850;50.942;13.748;2023-05-07T00:01:03;35.28;;;19.85;;
9834;SDS011;69850;50.942;13.748;2023-05-07T00:04:25;34.65;;;20.95;;
9834;SDS011;69850;50.942;13.748;2023-05-07T00:07:47;40.20;;;22.58;;
9834;SDS011;69850;50.942;13.748;2023-05-07T00:11:07;39.17;;;22.52;;
9834;SDS011;69850;50.942;13.748;2023-05-07T00:14:28;36.58;;;22.73;;
9834;SDS011;69850;50.942;13.748;2023-05-07T00:17:49;44.10;;;24.70;;
9834;SDS011;69850;50.942;13.748;2023-05-07T00:21:10;39.40;;;23.45;;
9834;SDS011;69850;50.942;13.748;2023-05-07T00:24:31;43.50;;;25.63;;
9834;SDS011;69850;50.942;13.748;2023-05-07T00:27:51;41.13;;;23.90;;
9834;SDS011;69850;50.942;13.748;2023-05-07T00:31:12;38.78;;;23.25;;
9834;SDS011;69850;50.942;13.748;2023-05-07T00:34:32;45.28;;;26.92;;
9834;SDS011;69850;50.942;13.748;2023-05-07T00:37:53;48.97;;;26.75;;
9834;SDS011;69850;50.942;13.748;2023-05-07T00:41:13;43.13;;;25.23;;
9834;SDS011;69850;50.942;13.748;2023-05-07T00:44:34;43.30;;;25.65;;
9834;SDS011;69850;50.942;13.748;2023-05-07T00:47:55;43.65;;;26.75;;
9834;SDS011;69850;50.942;13.748;2023-05-07T00:51:17;45.67;;;26.83;;
9834;SDS011;69850;50.942;13.748;2023-05-07T00:54:38;44.88;;;27.25;;
9834;SDS011;69850;50.942;13.748;2023-05-07T00:57:59;51.78;;;28.95;;
9834;SDS011;69850;50.942;13.748;2023-05-07T01:01:19;49.03;;;28.83;;
9834;SDS011;69850;50.942;13.748;2023-05-07T01:04:40;56.42;;;31.05;;
9834;SDS011;69850;50.942;13.748;2023-05-07T01:08:01;55.10;;;32.13;;
9834;SDS011;69850;50.942;13.748;2023-05-07T01:11:23;52.00;;;29.48;;
9834;SDS011;69850;50.942;13.748;2023-05-07T01:14:44;51.17;;;28.77;;
9834;SDS011;69850;50.942;13.748;2023-05-07T01:18:04;42.67;;;25.77;;
9834;SDS011;69850;50.942;13.748;2023-05-07T01:21:28;43.35;;;25.65;;
9834;SDS011;69850;50.942;13.748;2023-05-07T01:24:53;41.47;;;25.40;;
9834;SDS011;69850;50.942;13.748;2023-05-07T01:28:16;42.67;;;25.83;;
9834;SDS011;69850;50.942;13.748;2023-05-07T01:31:38;40.00;;;24.73;;
9834;SDS011;69850;50.942;13.748;2023-05-07T01:35:01;39.13;;;23.70;;
9834;SDS011;69850;50.942;13.748;2023-05-07T01:38:22;42.90;;;25.08;;
9834;SDS011;69850;50.942;13.748;2023-05-07T01:41:43;45.50;;;26.55;;
9834;SDS011;69850;50.942;13.748;2023-05-07T01:45:04;45.50;;;26.73;;
9834;SDS011;69850;50.942;13.748;2023-05-07T01:48:26;50.55;;;29.30;;
9834;SDS011;69850;50.942;13.748;2023-05-07T01:51:47;50.10;;;27.70;;
9834;SDS011;69850;50.942;13.748;2023-05-07T01:55:08;49.17;;;29.52;;
9834;SDS011;69850;50.942;13.748;2023-05-07T01:58:29;52.38;;;28.85;;
9834;SDS011;69850;50.942;13.748;2023-05-07T02:01:50;48.28;;;28.58;;
9834;SDS011;69850;50.942;13.748;2023-05-07T02:05:10;44.22;;;26.85;;
9834;SDS011;69850;50.942;13.748;2023-05-07T02:08:32;43.97;;;26.85;;
9834;SDS011;69850;50.942;13.748;2023-05-07T02:11:53;50.30;;;28.80;;
9834;SDS011;69850;50.942;13.748;2023-05-07T02:15:15;49.45;;;29.95;;
9834;SDS011;69850;50.942;13.748;2023-05-07T02:18:36;52.72;;;29.92;;
9834;SDS011;69850;50.942;13.748;2023-05-07T02:21:57;49.00;;;28.45;;
9834;SDS011;69850;50.942;13.748;2023-05-07T02:25:18;48.38;;;30.80;;
9834;SDS011;69850;50.942;13.748;2023-05-07T02:28:38;54.35;;;30.73;;
9834;SDS011;69850;50.942;13.748;2023-05-07T02:32:00;48.45;;;28.65;;
9834;SDS011;69850;50.942;13.748;2023-05-07T02:35:20;47.97;;;30.02;;
9834;SDS011;69850;50.942;13.748;2023-05-07T02:38:41;46.33;;;28.90;;
9834;SDS011;69850;50.942;13.748;2023-05-07T02:42:04;52.35;;;31.13;;
9834;SDS011;69850;50.942;13.748;2023-05-07T02:45:24;49.40;;;30.65;;
9834;SDS011;69850;50.942;13.748;2023-05-07T02:48:47;48.17;;;29.95;;
9834;SDS011;69850;50.942;13.748;2023-05-07T02:52:08;51.42;;;31.73;;
9834;SDS011;69850;50.942;13.748;2023-05-07T02:55:29;54.38;;;32.45;;
9834;SDS011;69850;50.942;13.748;2023-05-07T02:58:50;54.28;;;31.60;;
9834;SDS011;69850;50.942;13.748;2023-05-07T03:02:12;52.25;;;31.60;;
9834;SDS011;69850;50.942;13.748;2023-05-07T03:05:34;54.28;;;31.30;;
9834;SDS011;69850;50.942;13.748;2023-05-07T03:08:54;50.03;;;29.75;;
9834;SDS011;69850;50.942;13.748;2023-05-07T03:12:15;48.63;;;29.95;;
9834;SDS011;69850;50.942;13.748;2023-05-07T03:15:36;50.92;;;31.15;;
9834;SDS011;69850;50.942;13.748;2023-05-07T03:18:56;53.05;;;30.40;;
9834;SDS011;69850;50.942;13.748;2023-05-07T03:22:17;50.28;;;30.77;;
9834;SDS011;69850;50.942;13.748;2023-05-07T03:25:38;48.03;;;30.20;;
9834;SDS011;69850;50.942;13.748;2023-05-07T03:28:58;47.13;;;29.90;;
9834;SDS011;69850;50.942;13.748;2023-05-07T03:32:19;45.67;;;29.13;;
9834;SDS011;69850;50.942;13.748;2023-05-07T03:35:39;47.15;;;27.77;;
9834;SDS011;69850;50.942;13.748;2023-05-07T03:39:01;43.38;;;27.13;;
9834;SDS011;69850;50.942;13.748;2023-05-07T03:42:29;34.38;;;21.67;;
9834;SDS011;69850;50.942;13.748;2023-05-07T03:45:50;26.20;;;16.85;;
9834;SDS011;69850;50.942;13.748;2023-05-07T03:49:16;24.98;;;16.80;;
9834;SDS011;69850;50.942;13.748;2023-05-07T03:52:36;29.02;;;17.67;;
9834;SDS011;69850;50.942;13.748;2023-05-07T03:55:59;21.77;;;15.93;;
9834;SDS011;69850;50.942;13.748;2023-05-07T03:59:20;23.55;;;15.75;;
9834;SDS011;69850;50.942;13.748;2023-05-07T04:02:44;24.00;;;15.88;;
9834;SDS011;69850;50.942;13.748;2023-05-07T04:06:05;22.42;;;15.32;;
9834;SDS011;69850;50.942;13.748;2023-05-07T04:09:28;20.55;;;14.32;;
9834;SDS011;69850;50.942;13.748;2023-05-07T04:12:50;21.70;;;14.85;;
9834;SDS011;69850;50.942;13.748;2023-05-07T04:16:15;22.90;;;15.25;;
9834;SDS011;69850;50.942;13.748;2023-05-07T04:19:36;24.95;;;16.23;;
9834;SDS011;69850;50.942;13.748;2023-05-07T04:22:56;26.33;;;17.33;;
9834;SDS011;69850;50.942;13.748;2023-05-07T04:26:18;27.27;;;19.00;;
9834;SDS011;69850;50.942;13.748;2023-05-07T04:29:39;27.70;;;18.27;;
9834;SDS011;69850;50.942;13.748;2023-05-07T04:33:05;30.10;;;18.77;;
9834;SDS011;69850;50.942;13.748;2023-05-07T04:36:28;30.23;;;19.33;;
9834;SDS011;69850;50.942;13.748;2023-05-07T04:39:56;30.30;;;19.52;;
9834;SDS011;69850;50.942;13.748;2023-05-07T04:43:18;32.35;;;19.73;;
9834;SDS011;69850;50.942;13.748;2023-05-07T04:46:43;32.33;;;19.85;;
9834;SDS011;69850;50.942;13.748;2023-05-07T04:50:05;32.40;;;19.73;;
9834;SDS011;69850;50.942;13.748;2023-05-07T04:53:27;30.58;;;19.55;;
9834;SDS011;69850;50.942;13.748;2023-05-07T04:56:50;34.70;;;19.98;;
9834;SDS011;69850;50.942;13.748;2023-05-07T05:00:11;32.10;;;20.10;;
9834;SDS011;69850;50.942;13.748;2023-05-07T05:03:36;29.55;;;18.67;;
9834;SDS011;69850;50.942;13.748;2023-05-07T05:06:57;30.38;;;19.20;;
9834;SDS011;69850;50.942;13.748;2023-05-07T05:10:18;30.55;;;18.83;;
9834;SDS011;69850;50.942;13.748;2023-05-07T05:13:40;29.25;;;18.55;;
9834;SDS011;69850;50.942;13.748;2023-05-07T05:17:09;29.05;;;18.23;;
9834;SDS011;69850;50.942;13.748;2023-05-07T05:20:31;31.90;;;19.98;;
9834;SDS011;69850;50.942;13.748;2023-05-07T05:23:52;31.45;;;19.58;;
9834;SDS011;69850;50.942;13.748;2023-05-07T05:27:16;30.38;;;18.80;;
9834;SDS011;69850;50.942;13.748;2023-05-07T05:30:38;31.98;;;19.60;;
9834;SDS011;69850;50.942;13.748;2023-05-07T05:33:59;31.98;;;18.75;;
9834;SDS011;69850;50.942;13.748;2023-05-07T05:37:20;26.92;;;17.60;;
9834;SDS011;69850;50.942;13.748;2023-05-07T05:40:41;25.60;;;16.70;;
9834;SDS011;69850;50.942;13.748;2023-05-07T05:44:01;28.95;;;18.02;;
9834;SDS011;69850;50.942;13.748;2023-05-07T05:47:22;26.35;;;17.42;;
9834;SDS011;69850;50.942;13.748;2023-05-07T05:50:44;30.08;;;17.73;;
9834;SDS011;69850;50.942;13.748;2023-05-07T05:54:04;23.92;;;15.80;;
9834;SDS011;69850;50.942;13.748;2023-05-07T05:57:26;24.58;;;16.13;;
9834;SDS011;69850;50.942;13.748;2023-05-07T06:00:47;24.65;;;16.05;;
9834;SDS011;69850;50.942;13.748;2023-05-07T06:04:09;25.42;;;16.33;;
9834;SDS011;69850;50.942;13.748;2023-05-07T06:07:30;23.83;;;15.27;;
9834;SDS011;69850;50.942;13.748;2023-05-07T06:10:51;23.55;;;15.40;;
9834;SDS011;69850;50.942;13.748;2023-05-07T06:14:13;20.17;;;14.35;;
9834;SDS011;69850;50.942;13.748;2023-05-07T06:17:34;20.83;;;13.50;;
9834;SDS011;69850;50.942;13.748;2023-05-07T06:20:55;16.15;;;11.82;;
9834;SDS011;69850;50.942;13.748;2023-05-07T06:24:23;18.35;;;12.02;;
9834;SDS011;69850;50.942;13.748;2023-05-07T06:27:44;19.40;;;12.35;;
9834;SDS011;69850;50.942;13.748;2023-05-07T06:31:12;20.30;;;13.65;;
9834;SDS011;69850;50.942;13.748;2023-05-07T06:34:33;20.70;;;13.25;;
9834;SDS011;69850;50.942;13.748;2023-05-07T06:37:54;21.02;;;13.80;;
9834;SDS011;69850;50.942;13.748;2023-05-07T06:41:18;20.63;;;13.55;;
9834;SDS011;69850;50.942;13.748;2023-05-07T06:44:39;16.45;;;10.73;;
9834;SDS011;69850;50.942;13.748;2023-05-07T06:48:02;13.40;;;9.20;;
9834;SDS011;69850;50.942;13.748;2023-05-07T06:51:27;13.88;;;9.68;;
9834;SDS011;69850;50.942;13.748;2023-05-07T06:54:48;10.73;;;7.78;;
9834;SDS011;69850;50.942;13.748;2023-05-07T06:58:11;12.15;;;8.75;;
9834;SDS011;69850;50.942;13.748;2023-05-07T07:01:32;10.52;;;7.65;;
9834;SDS011;69850;50.942;13.748;2023-05-07T07:04:55;10.88;;;7.60;;
9834;SDS011;69850;50.942;13.748;2023-05-07T07:08:16;10.43;;;7.70;;
9834;SDS011;69850;50.942;13.748;2023-05-07T07:11:38;14.68;;;7.43;;
9834;SDS011;69850;50.942;13.748;2023-05-07T07:15:00;9.27;;;7.05;;
9834;SDS011;69850;50.942;13.748;2023-05-07T07:18:21;11.73;;;7.93;;
9834;SDS011;69850;50.942;13.748;2023-05-07T07:21:43;9.60;;;7.60;;
9834;SDS011;69850;50.942;13.748;2023-05-07T07:25:07;10.57;;;8.05;;
9834;SDS011;69850;50.942;13.748;2023-05-07T07:28:28;10.63;;;8.20;;
9834;SDS011;69850;50.942;13.748;2023-05-07T07:31:48;11.48;;;8.00;;
9834;SDS011;69850;50.942;13.748;2023-05-07T07:35:11;11.82;;;8.95;;
9834;SDS011;69850;50.942;13.748;2023-05-07T07:38:33;11.38;;;8.50;;
9834;SDS011;69850;50.942;13.748;2023-05-07T07:41:54;12.07;;;9.07;;
9834;SDS011;69850;50.942;13.748;2023-05-07T07:45:16;18.92;;;13.23;;
9834;SDS011;69850;50.942;13.748;2023-05-07T07:48:40;16.58;;;11.55;;
9834;SDS011;69850;50.942;13.748;2023-05-07T07:52:01;14.60;;;10.90;;
9834;SDS011;69850;50.942;13.748;2023-05-07T07:55:24;16.08;;;10.80;;
9834;SDS011;69850;50.942;13.748;2023-05-07T07:58:48;15.15;;;10.50;;
9834;SDS011;69850;50.942;13.748;2023-05-07T08:02:09;16.35;;;10.25;;
9834;SDS011;69850;50.942;13.748;2023-05-07T08:05:30;15.45;;;10.13;;
9834;SDS011;69850;50.942;13.748;2023-05-07T08:08:53;14.65;;;10.00;;
9834;SDS011;69850;50.942;13.748;2023-05-07T08:12:13;14.52;;;9.73;;
9834;SDS011;69850;50.942;13.748;2023-05-07T08:15:34;14.13;;;9.48;;
9834;SDS011;69850;50.942;13.748;2023-05-07T08:18:55;10.25;;;8.05;;
9834;SDS011;69850;50.942;13.748;2023-05-07T08:22:16;9.68;;;7.53;;
9834;SDS011;69850;50.942;13.748;2023-05-07T08:25:38;8.77;;;7.15;;
9834;SDS011;69850;50.942;13.748;2023-05-07T08:28:59;8.35;;;6.80;;
9834;SDS011;69850;50.942;13.748;2023-05-07T08:32:20;8.50;;;6.70;;
9834;SDS011;69850;50.942;13.748;2023-05-07T08:35:41;7.60;;;6.78;;
9834;SDS011;69850;50.942;13.748;2023-05-07T08:39:03;6.85;;;5.88;;
9834;SDS011;69850;50.942;13.748;2023-05-07T08:42:24;7.40;;;6.30;;
9834;SDS011;69850;50.942;13.748;2023-05-07T08:45:47;9.25;;;6.40;;
9834;SDS011;69850;50.942;13.748;2023-05-07T08:49:12;7.22;;;6.18;;
9834;SDS011;69850;50.942;13.748;2023-05-07T08:52:32;6.30;;;5.57;;
9834;SDS011;69850;50.942;13.748;2023-05-07T08:55:54;6.68;;;5.60;;
9834;SDS011;69850;50.942;13.748;2023-05-07T08:59:15;8.43;;;6.13;;
9834;SDS011;69850;50.942;13.748;2023-05-07T09:02:37;8.18;;;6.43;;
9834;SDS011;69850;50.942;13.748;2023-05-07T09:05:59;8.10;;;6.80;;
9834;SDS011;69850;50.942;13.748;2023-05-07T09:09:22;6.60;;;5.90;;
9834;SDS011;69850;50.942;13.748;2023-05-07T09:12:46;7.80;;;6.18;;
9834;SDS011;69850;50.942;13.748;2023-05-07T09:16:11;6.95;;;6.25;;
9834;SDS011;69850;50.942;13.748;2023-05-07T09:19:33;7.10;;;6.40;;
9834;SDS011;69850;50.942;13.748;2023-05-07T09:22:57;9.05;;;7.15;;
9834;SDS011;69850;50.942;13.748;2023-05-07T09:26:22;9.65;;;7.80;;
9834;SDS011;69850;50.942;13.748;2023-05-07T09:29:44;8.20;;;7.20;;
9834;SDS011;69850;50.942;13.748;2023-05-07T09:33:05;10.88;;;7.45;;
9834;SDS011;69850;50.942;13.748;2023-05-07T09:36:31;9.20;;;7.68;;
9834;SDS011;69850;50.942;13.748;2023-05-07T09:39:52;8.32;;;7.43;;
9834;SDS011;69850;50.942;13.748;2023-05-07T09:43:16;9.88;;;8.05;;
9834;SDS011;69850;50.942;13.748;2023-05-07T09:46:49;8.43;;;7.47;;
9834;SDS011;69850;50.942;13.748;2023-05-07T09:50:18;12.80;;;7.65;;
9834;SDS011;69850;50.942;13.748;2023-05-07T09:53:40;8.68;;;7.10;;
9834;SDS011;69850;50.942;13.748;2023-05-07T09:57:01;9.13;;;7.05;;
9834;SDS011;69850;50.942;13.748;2023-05-07T10:00:23;10.85;;;7.75;;
9834;SDS011;69850;50.942;13.748;2023-05-07T10:03:54;8.20;;;7.32;;
9834;SDS011;69850;50.942;13.748;2023-05-07T10:07:15;9.85;;;7.90;;
9834;SDS011;69850;50.942;13.748;2023-05-07T10:10:36;8.70;;;7.10;;
9834;SDS011;69850;50.942;13.748;2023-05-07T10:14:01;8.98;;;7.20;;
9834;SDS011;69850;50.942;13.748;2023-05-07T10:17:24;7.25;;;6.22;;
9834;SDS011;69850;50.942;13.748;2023-05-07T10:20:45;9.65;;;6.97;;
9834;SDS011;69850;50.942;13.748;2023-05-07T10:24:12;7.47;;;6.50;;
9834;SDS011;69850;50.942;13.748;2023-05-07T10:27:37;10.80;;;7.07;;
9834;SDS011;69850;50.942;13.748;2023-05-07T10:34:44;6.55;;;5.95;;
9834;SDS011;69850;50.942;13.748;2023-05-07T10:38:06;8.23;;;6.75;;
9834;SDS011;69850;50.942;13.748;2023-05-07T10:41:30;8.52;;;7.10;;
9834;SDS011;69850;50.942;13.748;2023-05-07T10:44:51;8.45;;;7.18;;
9834;SDS011;69850;50.942;13.748;2023-05-07T10:48:18;8.40;;;7.15;;
9834;SDS011;69850;50.942;13.748;2023-05-07T10:51:45;8.15;;;7.18;;
9834;SDS011;69850;50.942;13.748;2023-05-07T10:55:19;8.68;;;6.85;;
9834;SDS011;69850;50.942;13.748;2023-05-07T11:06:23;9.18;;;7.57;;
9834;SDS011;69850;50.942;13.748;2023-05-07T11:09:56;6.93;;;6.28;;
9834;SDS011;69850;50.942;13.748;2023-05-07T11:13:47;8.77;;;7.07;;
9834;SDS011;69850;50.942;13.748;2023-05-07T11:17:18;9.00;;;7.22;;
9834;SDS011;69850;50.942;13.748;2023-05-07T11:20:50;9.30;;;7.85;;
9834;SDS011;69850;50.942;13.748;2023-05-07T11:24:19;8.32;;;6.97;;
9834;SDS011;69850;50.942;13.748;2023-05-07T11:28:04;8.38;;;7.47;;
9834;SDS011;69850;50.942;13.748;2023-05-07T11:31:26;8.45;;;7.50;;
9834;SDS011;69850;50.942;13.748;2023-05-07T11:34:51;9.35;;;7.65;;
9834;SDS011;69850;50.942;13.748;2023-05-07T11:38:13;8.43;;;6.95;;
9834;SDS011;69850;50.942;13.748;2023-05-07T11:41:36;8.65;;;7.55;;
9834;SDS011;69850;50.942;13.748;2023-05-07T11:44:59;7.88;;;6.47;;
9834;SDS011;69850;50.942;13.748;2023-05-07T11:48:20;9.35;;;7.93;;
9834;SDS011;69850;50.942;13.748;2023-05-07T11:51:43;8.00;;;7.13;;
9834;SDS011;69850;50.942;13.748;2023-05-07T11:55:05;10.60;;;7.85;;
9834;SDS011;69850;50.942;13.748;2023-05-07T11:58:26;7.93;;;7.13;;
9834;SDS011;69850;50.942;13.748;2023-05-07T12:01:47;8.02;;;7.22;;
9834;SDS011;69850;50.942;13.748;2023-05-07T12:05:08;8.43;;;7.53;;
9834;SDS011;69850;50.942;13.748;2023-05-07T12:08:28;8.73;;;7.82;;
9834;SDS011;69850;50.942;13.748;2023-05-07T12:11:49;7.45;;;6.68;;
9834;SDS011;69850;50.942;13.748;2023-05-07T12:15:15;7.93;;;7.20;;
9834;SDS011;69850;50.942;13.748;2023-05-07T12:18:36;9.05;;;7.90;;
9834;SDS011;69850;50.942;13.748;2023-05-07T12:21:57;8.50;;;7.63;;
9834;SDS011;69850;50.942;13.748;2023-05-07T12:25:19;8.70;;;7.80;;
9834;SDS011;69850;50.942;13.748;2023-05-07T12:28:40;8.75;;;7.45;;
9834;SDS011;69850;50.942;13.748;2023-05-07T12:32:00;8.57;;;7.68;;
9834;SDS011;69850;50.942;13.748;2023-05-07T12:35:27;7.93;;;7.13;;
9834;SDS011;69850;50.942;13.748;2023-05-07T12:38:51;9.38;;;7.85;;
9834;SDS011;69850;50.942;13.748;2023-05-07T12:42:14;9.75;;;8.15;;
9834;SDS011;69850;50.942;13.748;2023-05-07T12:45:38;7.70;;;6.88;;
9834;SDS011;69850;50.942;13.748;2023-05-07T12:48:59;8.55;;;7.57;;
9834;SDS011;69850;50.942;13.748;2023-05-07T12:52:19;8.02;;;7.22;;
9834;SDS011;69850;50.942;13.748;2023-05-07T12:55:45;7.82;;;7.03;;
9834;SDS011;69850;50.942;13.748;2023-05-07T12:59:06;8.52;;;7.72;;
9834;SDS011;69850;50.942;13.748;2023-05-07T13:02:33;9.02;;;7.80;;
9834;SDS011;69850;50.942;13.748;2023-05-07T13:05:55;8.70;;;7.75;;
9834;SDS011;69850;50.942;13.748;2023-05-07T13:09:18;8.50;;;7.47;;
9834;SDS011;69850;50.942;13.748;2023-05-07T13:12:38;10.35;;;7.30;;
9834;SDS011;69850;50.942;13.748;2023-05-07T13:15:59;8.07;;;7.28;;
9834;SDS011;69850;50.942;13.748;2023-05-07T13:19:20;8.13;;;7.30;;
9834;SDS011;69850;50.942;13.748;2023-05-07T13:22:41;9.48;;;7.32;;
9834;SDS011;69850;50.942;13.748;2023-05-07T13:26:01;11.40;;;8.35;;
9834;SDS011;69850;50.942;13.748;2023-05-07T13:29:22;9.20;;;7.82;;
9834;SDS011;69850;50.942;13.748;2023-05-07T13:32:50;9.07;;;7.75;;
9834;SDS011;69850;50.942;13.748;2023-05-07T13:36:12;9.20;;;7.45;;
9834;SDS011;69850;50.942;13.748;2023-05-07T13:39:33;8.00;;;7.20;;
9834;SDS011;69850;50.942;13.748;2023-05-07T13:42:53;9.40;;;7.22;;
9834;SDS011;69850;50.942;13.748;2023-05-07T13:46:16;8.52;;;7.60;;
9834;SDS011;69850;50.942;13.748;2023-05-07T13:49:37;9.00;;;7.40;;
9834;SDS011;69850;50.942;13.748;2023-05-07T13:52:58;8.95;;;6.80;;
9834;SDS011;69850;50.942;13.748;2023-05-07T13:56:18;7.40;;;6.70;;
9834;SDS011;69850;50.942;13.748;2023-05-07T13:59:40;8.65;;;7.35;;
9834;SDS011;69850;50.942;13.748;2023-05-07T14:03:01;8.13;;;7.32;;
9834;SDS011;69850;50.942;13.748;2023-05-07T14:06:22;8.35;;;7.35;;
9834;SDS011;69850;50.942;13.748;2023-05-07T14:09:43;8.00;;;7.20;;
9834;SDS011;69850;50.942;13.748;2023-05-07T14:13:05;7.93;;;6.97;;
9834;SDS011;69850;50.942;13.748;2023-05-07T14:16:27;10.82;;;6.90;;
9834;SDS011;69850;50.942;13.748;2023-05-07T14:19:47;9.35;;;7.45;;
9834;SDS011;69850;50.942;13.748;2023-05-07T14:23:08;7.22;;;6.53;;
9834;SDS011;69850;50.942;13.748;2023-05-07T14:26:29;7.95;;;6.72;;
9834;SDS011;69850;50.942;13.748;2023-05-07T14:29:49;7.10;;;6.40;;
9834;SDS011;69850;50.942;13.748;2023-05-07T14:33:11;8.82;;;6.28;;
9834;SDS011;69850;50.942;13.748;2023-05-07T14:36:31;7.28;;;6.03;;
9834;SDS011;69850;50.942;13.748;2023-05-07T14:39:52;6.20;;;5.57;;
9834;SDS011;69850;50.942;13.748;2023-05-07T14:43:13;6.55;;;5.82;;
9834;SDS011;69850;50.942;13.748;2023-05-07T14:46:33;5.55;;;4.95;;
9834;SDS011;69850;50.942;13.748;2023-05-07T14:49:54;5.22;;;4.72;;
9834;SDS011;69850;50.942;13.748;2023-05-07T14:53:15;6.45;;;4.68;;
9834;SDS011;69850;50.942;13.748;2023-05-07T14:56:36;5.28;;;4.22;;
9834;SDS011;69850;50.942;13.748;2023-05-07T14:59:56;5.38;;;4.07;;
9834;SDS011;69850;50.942;13.748;2023-05-07T15:03:17;5.25;;;4.05;;
9834;SDS011;69850;50.942;13.748;2023-05-07T15:06:39;5.05;;;4.47;;
9834;SDS011;69850;50.942;13.748;2023-05-07T15:09:59;4.43;;;4.03;;
9834;SDS011;69850;50.942;13.748;2023-05-07T15:13:20;5.13;;;4.63;;
9834;SDS011;69850;50.942;13.748;2023-05-07T15:16:41;5.07;;;4.57;;
9834;SDS011;69850;50.942;13.748;2023-05-07T15:20:01;5.65;;;4.60;;
9834;SDS011;69850;50.942;13.748;2023-05-07T15:23:24;5.70;;;4.90;;
9834;SDS011;69850;50.942;13.748;2023-05-07T15:26:46;7.65;;;4.78;;
9834;SDS011;69850;50.942;13.748;2023-05-07T15:30:07;5.55;;;5.00;;
9834;SDS011;69850;50.942;13.748;2023-05-07T15:33:30;5.95;;;4.88;;
9834;SDS011;69850;50.942;13.748;2023-05-07T15:36:50;5.60;;;5.00;;
9834;SDS011;69850;50.942;13.748;2023-05-07T15:40:12;7.53;;;5.60;;
9834;SDS011;69850;50.942;13.748;2023-05-07T15:43:32;7.07;;;6.10;;
9834;SDS011;69850;50.942;13.748;2023-05-07T15:46:53;10.50;;;6.47;;
9834;SDS011;69850;50.942;13.748;2023-05-07T15:50:13;8.43;;;7.10;;
9834;SDS011;69850;50.942;13.748;2023-05-07T15:53:34;11.02;;;7.15;;
9834;SDS011;69850;50.942;13.748;2023-05-07T15:56:56;7.22;;;6.43;;
9834;SDS011;69850;50.942;13.748;2023-05-07T16:00:17;8.40;;;6.18;;
9834;SDS011;69850;50.942;13.748;2023-05-07T16:03:38;9.60;;;6.57;;
9834;SDS011;69850;50.942;13.748;2023-05-07T16:07:00;6.78;;;6.07;;
9834;SDS011;69850;50.942;13.748;2023-05-07T16:10:20;6.70;;;5.90;;
9834;SDS011;69850;50.942;13.748;2023-05-07T16:13:41;6.78;;;5.70;;
9834;SDS011;69850;50.942;13.748;2023-05-07T16:17:02;7.63;;;5.80;;
9834;SDS011;69850;50.942;13.748;2023-05-07T16:20:25;6.05;;;5.45;;
9834;SDS011;69850;50.942;13.748;2023-05-07T16:23:51;8.85;;;6.50;;
9834;SDS011;69850;50.942;13.748;2023-05-07T16:27:12;7.13;;;6.47;;
9834;SDS011;69850;50.942;13.748;2023-05-07T16:30:33;9.27;;;7.13;;
9834;SDS011;69850;50.942;13.748;2023-05-07T16:33:53;6.82;;;6.10;;
9834;SDS011;69850;50.942;13.748;2023-05-07T16:37:14;7.47;;;6.65;;
9834;SDS011;69850;50.942;13.748;2023-05-07T16:40:38;7.97;;;6.70;;
9834;SDS011;69850;50.942;13.748;2023-05-07T16:43:59;7.85;;;6.75;;
9834;SDS011;69850;50.942;13.748;2023-05-07T16:47:19;7.80;;;6.97;;
9834;SDS011;69850;50.942;13.748;2023-05-07T16:50:40;10.00;;;7.30;;
9834;SDS011;69850;50.942;13.748;2023-05-07T16:54:03;7.78;;;6.97;;
9834;SDS011;69850;50.942;13.748;2023-05-07T16:57:24;9.00;;;7.13;;
9834;SDS011;69850;50.942;13.748;2023-05-07T17:00:45;8.45;;;7.30;;
9834;SDS011;69850;50.942;13.748;2023-05-07T17:04:05;8.68;;;6.95;;
9834;SDS011;69850;50.942;13.748;2023-05-07T17:07:26;8.30;;;7.40;;
9834;SDS011;69850;50.942;13.748;2023-05-07T17:10:46;8.15;;;6.88;;
9834;SDS011;69850;50.942;13.748;2023-05-07T17:14:08;7.95;;;7.15;;
9834;SDS011;69850;50.942;13.748;2023-05-07T17:17:30;7.65;;;6.85;;
9834;SDS011;69850;50.942;13.748;2023-05-07T17:20:51;7.28;;;6.50;;
9834;SDS011;69850;50.942;13.748;2023-05-07T17:24:12;7.45;;;6.53;;
9834;SDS011;69850;50.942;13.748;2023-05-07T17:27:33;7.78;;;6.32;;
9834;SDS011;69850;50.942;13.748;2023-05-07T17:30:54;8.30;;;7.20;;
9834;SDS011;69850;50.942;13.748;2023-05-07T17:34:16;9.30;;;7.30;;
9834;SDS011;69850;50.942;13.748;2023-05-07T17:37:36;7.40;;;6.45;;
9834;SDS011;69850;50.942;13.748;2023-05-07T17:40:57;7.47;;;6.60;;
9834;SDS011;69850;50.942;13.748;2023-05-07T17:44:18;8.02;;;7.18;;
9834;SDS011;69850;50.942;13.748;2023-05-07T17:47:40;8.93;;;7.20;;
9834;SDS011;69850;50.942;13.748;2023-05-07T17:51:01;10.07;;;7.00;;
9834;SDS011;69850;50.942;13.748;2023-05-07T17:54:23;9.65;;;7.63;;
9834;SDS011;69850;50.942;13.748;2023-05-07T17:57:45;8.40;;;7.40;;
9834;SDS011;69850;50.942;13.748;2023-05-07T18:01:05;8.70;;;7.70;;
9834;SDS011;69850;50.942;13.748;2023-05-07T18:04:26;12.85;;;9.07;;
9834;SDS011;69850;50.942;13.748;2023-05-07T18:07:47;10.18;;;8.07;;
9834;SDS011;69850;50.942;13.748;2023-05-07T18:11:07;18.20;;;12.02;;
9834;SDS011;69850;50.942;13.748;2023-05-07T18:14:28;11.32;;;8.60;;
9834;SDS011;69850;50.942;13.748;2023-05-07T18:17:49;10.00;;;8.57;;
9834;SDS011;69850;50.942;13.748;2023-05-07T18:21:10;10.73;;;8.20;;
9834;SDS011;69850;50.942;13.748;2023-05-07T18:24:34;9.68;;;8.45;;
9834;SDS011;69850;50.942;13.748;2023-05-07T18:27:55;10.90;;;8.65;;
9834;SDS011;69850;50.942;13.748;2023-05-07T18:31:15;11.45;;;8.82;;
9834;SDS011;69850;50.942;13.748;2023-05-07T18:34:36;10.88;;;9.38;;
9834;SDS011;69850;50.942;13.748;2023-05-07T18:37:57;9.77;;;8.75;;
9834;SDS011;69850;50.942;13.748;2023-05-07T18:41:17;12.65;;;9.77;;
9834;SDS011;69850;50.942;13.748;2023-05-07T18:44:38;11.65;;;9.02;;
9834;SDS011;69850;50.942;13.748;2023-05-07T18:47:59;10.40;;;8.93;;
9834;SDS011;69850;50.942;13.748;2023-05-07T18:51:20;13.10;;;9.50;;
9834;SDS011;69850;50.942;13.748;2023-05-07T18:54:41;10.50;;;9.00;;
9834;SDS011;69850;50.942;13.748;2023-05-07T18:58:02;12.50;;;9.98;;
9834;SDS011;69850;50.942;13.748;2023-05-07T19:01:23;13.60;;;9.90;;
9834;SDS011;69850;50.942;13.748;2023-05-07T19:04:43;12.60;;;10.65;;
9834;SDS011;69850;50.942;13.748;2023-05-07T19:11:28;12.07;;;9.27;;
9834;SDS011;69850;50.942;13.748;2023-05-07T19:14:48;12.60;;;10.30;;
9834;SDS011;69850;50.942;13.748;2023-05-07T19:18:09;12.15;;;9.68;;
9834;SDS011;69850;50.942;13.748;2023-05-07T19:21:30;11.50;;;9.98;;
9834;SDS011;69850;50.942;13.748;2023-05-07T19:24:51;12.93;;;10.07;;
9834;SDS011;69850;50.942;13.748;2023-05-07T19:28:12;13.13;;;10.05;;
9834;SDS011;69850;50.942;13.748;2023-05-07T19:31:33;11.82;;;10.23;;
9834;SDS011;69850;50.942;13.748;2023-05-07T19:34:53;12.25;;;9.68;;
9834;SDS011;69850;50.942;13.748;2023-05-07T19:38:14;12.88;;;10.48;;
9834;SDS011;69850;50.942;13.748;2023-05-07T19:41:35;12.00;;;9.98;;
9834;SDS011;69850;50.942;13.748;2023-05-07T19:44:56;13.55;;;10.63;;
9834;SDS011;69850;50.942;13.748;2023-05-07T19:48:17;14.00;;;11.30;;
9834;SDS011;69850;50.942;13.748;2023-05-07T19:51:37;14.15;;;11.07;;
9834;SDS011;69850;50.942;13.748;2023-05-07T19:54:58;13.15;;;11.57;;
9834;SDS011;69850;50.942;13.748;2023-05-07T19:58:18;13.55;;;11.82;;
9834;SDS011;69850;50.942;13.748;2023-05-07T20:01:40;15.27;;;11.30;;
9834;SDS011;69850;50.942;13.748;2023-05-07T20:05:01;14.55;;;11.48;;
9834;SDS011;69850;50.942;13.748;2023-05-07T20:08:23;13.90;;;11.35;;
9834;SDS011;69850;50.942;13.748;2023-05-07T20:11:43;15.00;;;11.90;;
9834;SDS011;69850;50.942;13.748;2023-05-07T20:15:04;14.50;;;11.85;;